sensor_id;sensor_type;location;lat;lon;timestamp;pressure;altitude;pressure_sealevel;temperature;humidity
6032;BME280;3044;43.232;27.972;2023-01-19T00:00:04;44972.91;;;-143.84;77.21
6032;BME280;3044;43.232;27.972;2023-01-19T00:02:32;45028.13;;;-143.84;77.40
6032;BME280;3044;43.232;27.972;2023-01-19T00:05:00;45018.59;;;-143.84;77.60
6032;BME280;3044;43.232;27.972;2023-01-19T00:07:28;44990.03;;;-143.84;77.48
6032;BME280;3044;43.232;27.972;2023-01-19T00:09:55;45022.41;;;-143.84;77.48
6032;BME280;3044;43.232;27.972;2023-01-19T00:12:23;44990.03;;;-143.84;77.54
6032;BME280;3044;43.232;27.972;2023-01-19T00:14:52;45007.19;;;-143.84;77.86
6032;BME280;3044;43.232;27.972;2023-01-19T00:17:19;44980.53;;;-143.84;77.74
6032;BME280;3044;43.232;27.972;2023-01-19T00:19:46;44976.72;;;-143.84;77.83
6032;BME280;3044;43.232;27.972;2023-01-19T00:22:13;44990.03;;;-143.84;77.87
6032;BME280;3044;43.232;27.972;2023-01-19T00:24:40;45010.97;;;-143.84;77.93
6032;BME280;3044;43.232;27.972;2023-01-19T00:27:08;45001.47;;;-143.84;77.92
6032;BME280;3044;43.232;27.972;2023-01-19T00:29:36;44997.66;;;-143.84;77.75
6032;BME280;3044;43.232;27.972;2023-01-19T00:32:05;45003.38;;;-143.84;77.78
6032;BME280;3044;43.232;27.972;2023-01-19T00:34:32;45026.22;;;-143.84;77.71
6032;BME280;3044;43.232;27.972;2023-01-19T00:37:04;45010.97;;;-143.84;77.49
6032;BME280;3044;43.232;27.972;2023-01-19T00:39:31;45007.19;;;-143.84;77.63
6032;BME280;3044;43.232;27.972;2023-01-19T00:41:59;44999.56;;;-143.84;77.51
6032;BME280;3044;43.232;27.972;2023-01-19T00:44:43;45007.19;;;-143.84;77.41
6032;BME280;3044;43.232;27.972;2023-01-19T00:47:12;45030.03;;;-143.84;77.48
6032;BME280;3044;43.232;27.972;2023-01-19T00:49:39;45014.78;;;-143.84;77.26
6032;BME280;3044;43.232;27.972;2023-01-19T00:52:07;45039.53;;;-143.84;77.26
6032;BME280;3044;43.232;27.972;2023-01-19T00:54:34;45003.38;;;-143.84;77.43
6032;BME280;3044;43.232;27.972;2023-01-19T00:57:01;45003.38;;;-143.84;77.40
6032;BME280;3044;43.232;27.972;2023-01-19T00:59:29;45010.97;;;-143.84;77.62
6032;BME280;3044;43.232;27.972;2023-01-19T01:01:57;45018.59;;;-143.84;77.65
6032;BME280;3044;43.232;27.972;2023-01-19T01:04:25;44997.66;;;-143.84;77.93
6032;BME280;3044;43.232;27.972;2023-01-19T01:06:52;44991.94;;;-143.84;77.93
6032;BME280;3044;43.232;27.972;2023-01-19T01:09:19;45012.88;;;-143.84;77.93
6032;BME280;3044;43.232;27.972;2023-01-19T01:11:46;44999.56;;;-143.84;77.97
6032;BME280;3044;43.232;27.972;2023-01-19T01:14:13;45030.03;;;-143.84;78.11
6032;BME280;3044;43.232;27.972;2023-01-19T01:16:41;44980.53;;;-143.84;78.04
6032;BME280;3044;43.232;27.972;2023-01-19T01:19:08;44988.13;;;-143.84;78.17
6032;BME280;3044;43.232;27.972;2023-01-19T01:21:37;44982.41;;;-143.84;78.42
6032;BME280;3044;43.232;27.972;2023-01-19T01:24:05;45005.28;;;-143.84;78.39
6032;BME280;3044;43.232;27.972;2023-01-19T01:26:32;44969.09;;;-143.84;78.47
6032;BME280;3044;43.232;27.972;2023-01-19T01:28:59;44982.41;;;-143.84;78.39
6032;BME280;3044;43.232;27.972;2023-01-19T01:31:27;44972.91;;;-143.84;78.46
6032;BME280;3044;43.232;27.972;2023-01-19T01:33:54;44984.31;;;-143.84;78.23
6032;BME280;3044;43.232;27.972;2023-01-19T01:36:21;45005.28;;;-143.84;78.23
6032;BME280;3044;43.232;27.972;2023-01-19T01:38:50;45001.47;;;-143.84;78.14
6032;BME280;3044;43.232;27.972;2023-01-19T01:41:17;44959.56;;;-143.84;78.19
6032;BME280;3044;43.232;27.972;2023-01-19T01:43:46;44971.00;;;-143.84;78.31
6032;BME280;3044;43.232;27.972;2023-01-19T01:46:14;44980.53;;;-143.84;78.24
6032;BME280;3044;43.232;27.972;2023-01-19T01:48:47;45001.47;;;-143.84;77.94
6032;BME280;3044;43.232;27.972;2023-01-19T01:51:20;44971.00;;;-143.84;78.19
6032;BME280;3044;43.232;27.972;2023-01-19T01:53:57;44990.03;;;-143.84;78.20
6032;BME280;3044;43.232;27.972;2023-01-19T01:56:31;45009.09;;;-143.84;78.08
6032;BME280;3044;43.232;27.972;2023-01-19T01:58:59;44990.03;;;-143.84;77.91
6032;BME280;3044;43.232;27.972;2023-01-19T02:01:28;44988.13;;;-143.84;78.17
6032;BME280;3044;43.232;27.972;2023-01-19T02:04:14;44984.31;;;-143.84;78.32
6032;BME280;3044;43.232;27.972;2023-01-19T02:06:42;45024.31;;;-143.84;78.20
6032;BME280;3044;43.232;27.972;2023-01-19T02:09:28;44999.56;;;-143.84;78.08
6032;BME280;3044;43.232;27.972;2023-01-19T02:12:15;44999.56;;;-143.84;78.09
6032;BME280;3044;43.232;27.972;2023-01-19T02:15:00;44999.56;;;-143.84;78.04
6032;BME280;3044;43.232;27.972;2023-01-19T02:17:27;45018.59;;;-143.84;78.00
6032;BME280;3044;43.232;27.972;2023-01-19T02:19:57;45018.59;;;-143.84;77.80
6032;BME280;3044;43.232;27.972;2023-01-19T02:22:27;45037.66;;;-143.84;77.66
6032;BME280;3044;43.232;27.972;2023-01-19T02:25:02;45028.13;;;-143.84;77.71
6032;BME280;3044;43.232;27.972;2023-01-19T02:27:31;45001.47;;;-143.84;77.45
6032;BME280;3044;43.232;27.972;2023-01-19T02:29:58;45041.44;;;-143.84;77.20
6032;BME280;3044;43.232;27.972;2023-01-19T02:32:28;45016.69;;;-143.84;77.13
6032;BME280;3044;43.232;27.972;2023-01-19T02:34:55;45050.97;;;-143.84;77.09
6032;BME280;3044;43.232;27.972;2023-01-19T02:37:23;45047.16;;;-143.84;76.96
6032;BME280;3044;43.232;27.972;2023-01-19T02:39:53;45052.88;;;-143.84;77.06
6032;BME280;3044;43.232;27.972;2023-01-19T02:42:25;45079.53;;;-143.84;77.04
6032;BME280;3044;43.232;27.972;2023-01-19T02:44:54;45062.41;;;-143.84;77.17
6032;BME280;3044;43.232;27.972;2023-01-19T02:47:22;45031.94;;;-143.84;77.29
6032;BME280;3044;43.232;27.972;2023-01-19T02:49:54;45052.88;;;-143.84;77.18
6032;BME280;3044;43.232;27.972;2023-01-19T02:52:21;45028.13;;;-143.84;77.15
6032;BME280;3044;43.232;27.972;2023-01-19T02:54:57;45047.16;;;-143.84;77.23
6032;BME280;3044;43.232;27.972;2023-01-19T02:57:48;45050.97;;;-143.84;77.35
6032;BME280;3044;43.232;27.972;2023-01-19T03:00:29;45028.13;;;-143.84;77.62
6032;BME280;3044;43.232;27.972;2023-01-19T03:03:14;45033.84;;;-143.84;77.73
6032;BME280;3044;43.232;27.972;2023-01-19T03:05:56;45026.22;;;-143.84;77.86
6032;BME280;3044;43.232;27.972;2023-01-19T03:08:40;45018.59;;;-143.84;78.20
6032;BME280;3044;43.232;27.972;2023-01-19T03:11:10;44991.94;;;-143.84;78.35
6032;BME280;3044;43.232;27.972;2023-01-19T03:13:46;45016.69;;;-143.84;78.52
6032;BME280;3044;43.232;27.972;2023-01-19T03:16:19;45009.09;;;-143.84;78.58
6032;BME280;3044;43.232;27.972;2023-01-19T03:18:50;45003.38;;;-143.84;78.57
6032;BME280;3044;43.232;27.972;2023-01-19T03:21:22;45012.88;;;-143.84;78.68
6032;BME280;3044;43.232;27.972;2023-01-19T03:23:52;45003.38;;;-143.84;78.71
6032;BME280;3044;43.232;27.972;2023-01-19T03:26:24;44995.75;;;-143.84;78.59
6032;BME280;3044;43.232;27.972;2023-01-19T03:28:55;44969.09;;;-143.84;78.74
6032;BME280;3044;43.232;27.972;2023-01-19T03:31:25;45009.09;;;-143.84;78.57
6032;BME280;3044;43.232;27.972;2023-01-19T03:33:56;44931.00;;;-143.84;78.90
6032;BME280;3044;43.232;27.972;2023-01-19T03:36:28;44988.13;;;-143.84;78.73
6032;BME280;3044;43.232;27.972;2023-01-19T03:38:57;44967.19;;;-143.84;78.70
6032;BME280;3044;43.232;27.972;2023-01-19T03:41:27;45007.19;;;-143.84;78.75
6032;BME280;3044;43.232;27.972;2023-01-19T03:43:58;44980.53;;;-143.84;78.83
6032;BME280;3044;43.232;27.972;2023-01-19T03:46:26;44944.34;;;-143.84;79.05
6032;BME280;3044;43.232;27.972;2023-01-19T03:48:54;44961.47;;;-143.84;78.76
6032;BME280;3044;43.232;27.972;2023-01-19T03:51:23;44972.91;;;-143.84;79.02
6032;BME280;3044;43.232;27.972;2023-01-19T03:53:50;44948.16;;;-143.84;79.01
6032;BME280;3044;43.232;27.972;2023-01-19T03:56:19;44969.09;;;-143.84;79.05
6032;BME280;3044;43.232;27.972;2023-01-19T03:58:46;44957.66;;;-143.84;79.16
6032;BME280;3044;43.232;27.972;2023-01-19T04:01:18;44932.91;;;-143.84;79.20
6032;BME280;3044;43.232;27.972;2023-01-19T04:03:47;44978.63;;;-143.84;78.99
6032;BME280;3044;43.232;27.972;2023-01-19T04:06:14;44953.88;;;-143.84;78.99
6032;BME280;3044;43.232;27.972;2023-01-19T04:08:42;44953.88;;;-143.84;78.97
6032;BME280;3044;43.232;27.972;2023-01-19T04:11:09;44929.09;;;-143.84;79.12
6032;BME280;3044;43.232;27.972;2023-01-19T04:13:36;44953.88;;;-143.84;79.32
6032;BME280;3044;43.232;27.972;2023-01-19T04:16:05;44915.78;;;-143.84;79.30
6032;BME280;3044;43.232;27.972;2023-01-19T04:18:33;44921.50;;;-143.84;79.74
6032;BME280;3044;43.232;27.972;2023-01-19T04:21:02;44946.25;;;-143.84;79.56
6032;BME280;3044;43.232;27.972;2023-01-19T04:23:30;44911.97;;;-143.84;79.62
6032;BME280;3044;43.232;27.972;2023-01-19T04:25:57;44900.53;;;-143.84;79.85
6032;BME280;3044;43.232;27.972;2023-01-19T04:28:25;44887.22;;;-143.84;79.89
6032;BME280;3044;43.232;27.972;2023-01-19T04:30:52;44908.16;;;-143.84;79.88
6032;BME280;3044;43.232;27.972;2023-01-19T04:33:20;44902.44;;;-143.84;80.02
6032;BME280;3044;43.232;27.972;2023-01-19T04:35:50;44877.69;;;-143.84;80.16
6032;BME280;3044;43.232;27.972;2023-01-19T04:38:17;44866.28;;;-143.84;80.29
6032;BME280;3044;43.232;27.972;2023-01-19T04:40:45;44826.28;;;-143.84;80.21
6032;BME280;3044;43.232;27.972;2023-01-19T04:43:13;44824.38;;;-143.84;80.35
6032;BME280;3044;43.232;27.972;2023-01-19T04:45:40;44830.09;;;-143.84;80.41
6032;BME280;3044;43.232;27.972;2023-01-19T04:48:09;44852.94;;;-143.84;80.28
6032;BME280;3044;43.232;27.972;2023-01-19T04:50:36;44851.03;;;-143.84;80.31
6032;BME280;3044;43.232;27.972;2023-01-19T04:53:05;44866.28;;;-143.84;80.09
6032;BME280;3044;43.232;27.972;2023-01-19T04:55:32;44860.56;;;-143.84;80.13
6032;BME280;3044;43.232;27.972;2023-01-19T04:57:59;44873.88;;;-143.84;80.13
6032;BME280;3044;43.232;27.972;2023-01-19T05:00:26;44881.50;;;-143.84;80.08
6032;BME280;3044;43.232;27.972;2023-01-19T05:02:54;44892.94;;;-143.84;79.85
6032;BME280;3044;43.232;27.972;2023-01-19T05:05:21;44887.22;;;-143.84;80.04
6032;BME280;3044;43.232;27.972;2023-01-19T05:07:48;44854.84;;;-143.84;79.92
6032;BME280;3044;43.232;27.972;2023-01-19T05:10:19;44906.25;;;-143.84;79.71
6032;BME280;3044;43.232;27.972;2023-01-19T05:12:48;44889.13;;;-143.84;79.98
6032;BME280;3044;43.232;27.972;2023-01-19T05:15:15;44868.19;;;-143.84;79.93
6032;BME280;3044;43.232;27.972;2023-01-19T05:17:43;44908.16;;;-143.84;79.81
6032;BME280;3044;43.232;27.972;2023-01-19T05:20:11;44862.47;;;-143.84;79.85
6032;BME280;3044;43.232;27.972;2023-01-19T05:22:39;44908.16;;;-143.84;79.84
6032;BME280;3044;43.232;27.972;2023-01-19T05:25:06;44885.31;;;-143.84;79.80
6032;BME280;3044;43.232;27.972;2023-01-19T05:27:36;44883.41;;;-143.84;79.65
6032;BME280;3044;43.232;27.972;2023-01-19T05:30:04;44908.16;;;-143.84;79.55
6032;BME280;3044;43.232;27.972;2023-01-19T05:32:32;44900.53;;;-143.84;79.68
6032;BME280;3044;43.232;27.972;2023-01-19T05:34:59;44913.88;;;-143.84;79.70
6032;BME280;3044;43.232;27.972;2023-01-19T05:37:26;44932.91;;;-143.84;79.74
6032;BME280;3044;43.232;27.972;2023-01-19T05:39:53;44910.06;;;-143.84;79.73
6032;BME280;3044;43.232;27.972;2023-01-19T05:42:20;44908.16;;;-143.84;79.82
6032;BME280;3044;43.232;27.972;2023-01-19T05:44:49;44955.75;;;-143.84;79.58
6032;BME280;3044;43.232;27.972;2023-01-19T05:47:16;44999.56;;;-143.84;78.94
6032;BME280;3044;43.232;27.972;2023-01-19T05:49:43;44921.50;;;-143.84;79.74
6032;BME280;3044;43.232;27.972;2023-01-19T05:52:10;44807.25;;;-143.84;81.03
6032;BME280;3044;43.232;27.972;2023-01-19T05:54:37;44645.41;;;-143.84;81.81
6032;BME280;3044;43.232;27.972;2023-01-19T05:57:05;44603.53;;;-143.84;81.98
6032;BME280;3044;43.232;27.972;2023-01-19T05:59:32;44534.97;;;-143.84;82.09
6032;BME280;3044;43.232;27.972;2023-01-19T06:02:01;44460.72;;;-143.84;82.31
6032;BME280;3044;43.232;27.972;2023-01-19T06:04:28;44432.19;;;-143.84;82.55
6032;BME280;3044;43.232;27.972;2023-01-19T06:06:55;44295.09;;;-143.84;82.81
6032;BME280;3044;43.232;27.972;2023-01-19T06:09:22;44295.09;;;-143.84;82.58
6032;BME280;3044;43.232;27.972;2023-01-19T06:11:49;44378.88;;;-143.84;82.61
6032;BME280;3044;43.232;27.972;2023-01-19T06:14:18;44325.56;;;-143.84;82.69
6032;BME280;3044;43.232;27.972;2023-01-19T06:16:46;44342.69;;;-143.84;82.43
6032;BME280;3044;43.232;27.972;2023-01-19T06:19:14;44367.44;;;-143.84;82.24
6032;BME280;3044;43.232;27.972;2023-01-19T06:21:41;44300.81;;;-143.84;82.38
6032;BME280;3044;43.232;27.972;2023-01-19T06:24:14;44369.34;;;-143.84;82.29
6032;BME280;3044;43.232;27.972;2023-01-19T06:26:41;44426.47;;;-143.84;82.14
6032;BME280;3044;43.232;27.972;2023-01-19T06:29:09;44435.97;;;-143.84;81.90
6032;BME280;3044;43.232;27.972;2023-01-19T06:31:37;44504.53;;;-143.84;81.85
6032;BME280;3044;43.232;27.972;2023-01-19T06:34:04;44437.88;;;-143.84;81.93
6032;BME280;3044;43.232;27.972;2023-01-19T06:36:33;44430.28;;;-143.84;81.94
6032;BME280;3044;43.232;27.972;2023-01-19T06:39:00;44352.22;;;-143.84;82.21
6032;BME280;3044;43.232;27.972;2023-01-19T06:41:31;44439.78;;;-143.84;81.92
6032;BME280;3044;43.232;27.972;2023-01-19T06:43:58;44460.72;;;-143.84;82.00
6032;BME280;3044;43.232;27.972;2023-01-19T06:46:25;44508.31;;;-143.84;81.45
6032;BME280;3044;43.232;27.972;2023-01-19T06:48:53;44571.16;;;-143.84;81.21
6032;BME280;3044;43.232;27.972;2023-01-19T06:51:20;44586.38;;;-143.84;81.27
6032;BME280;3044;43.232;27.972;2023-01-19T06:53:50;44550.22;;;-143.84;81.53
6032;BME280;3044;43.232;27.972;2023-01-19T06:56:17;44453.13;;;-143.84;81.92
6032;BME280;3044;43.232;27.972;2023-01-19T06:58:45;44382.69;;;-143.84;82.10
6032;BME280;3044;43.232;27.972;2023-01-19T07:01:13;44344.59;;;-143.84;82.44
6032;BME280;3044;43.232;27.972;2023-01-19T07:03:40;44272.25;;;-143.84;82.64
6032;BME280;3044;43.232;27.972;2023-01-19T07:06:07;44352.22;;;-143.84;82.50
6032;BME280;3044;43.232;27.972;2023-01-19T07:08:34;44249.41;;;-143.84;82.50
6032;BME280;3044;43.232;27.972;2023-01-19T07:11:05;44245.59;;;-143.84;82.80
6032;BME280;3044;43.232;27.972;2023-01-19T07:13:33;44171.38;;;-143.84;83.10
6032;BME280;3044;43.232;27.972;2023-01-19T07:16:03;44125.69;;;-143.84;82.87
6032;BME280;3044;43.232;27.972;2023-01-19T07:18:30;44148.53;;;-143.84;82.87
6032;BME280;3044;43.232;27.972;2023-01-19T07:20:58;44236.09;;;-143.84;82.55
6032;BME280;3044;43.232;27.972;2023-01-19T07:23:25;44196.13;;;-143.84;82.63
6032;BME280;3044;43.232;27.972;2023-01-19T07:25:55;44335.09;;;-143.84;82.13
6032;BME280;3044;43.232;27.972;2023-01-19T07:28:23;44308.44;;;-143.84;82.17
6032;BME280;3044;43.232;27.972;2023-01-19T07:30:51;44399.81;;;-143.84;81.84
6032;BME280;3044;43.232;27.972;2023-01-19T07:33:18;44451.22;;;-143.84;81.85
6032;BME280;3044;43.232;27.972;2023-01-19T07:35:47;44512.13;;;-143.84;81.46
6032;BME280;3044;43.232;27.972;2023-01-19T07:38:14;44569.25;;;-143.84;81.33
6032;BME280;3044;43.232;27.972;2023-01-19T07:40:42;44611.13;;;-143.84;80.87
6032;BME280;3044;43.232;27.972;2023-01-19T07:43:10;44649.22;;;-143.84;80.78
6032;BME280;3044;43.232;27.972;2023-01-19T07:45:39;44719.66;;;-143.84;80.51
6032;BME280;3044;43.232;27.972;2023-01-19T07:48:06;44689.19;;;-143.84;80.37
6032;BME280;3044;43.232;27.972;2023-01-19T07:50:33;44713.94;;;-143.84;80.39
6032;BME280;3044;43.232;27.972;2023-01-19T07:53:04;44742.50;;;-143.84;80.12
6032;BME280;3044;43.232;27.972;2023-01-19T07:55:31;44771.06;;;-143.84;79.92
6032;BME280;3044;43.232;27.972;2023-01-19T07:57:58;44832.00;;;-143.84;79.33
6032;BME280;3044;43.232;27.972;2023-01-19T08:00:25;44877.69;;;-143.84;78.65
6032;BME280;3044;43.232;27.972;2023-01-19T08:02:57;44957.66;;;-143.84;78.21
6032;BME280;3044;43.232;27.972;2023-01-19T08:05:25;44959.56;;;-143.84;77.81
6032;BME280;3044;43.232;27.972;2023-01-19T08:07:53;44963.38;;;-143.84;77.86
6032;BME280;3044;43.232;27.972;2023-01-19T08:10:22;44978.63;;;-143.84;77.33
6032;BME280;3044;43.232;27.972;2023-01-19T08:12:51;44969.09;;;-143.84;77.37
6032;BME280;3044;43.232;27.972;2023-01-19T08:15:18;44972.91;;;-143.84;76.97
6032;BME280;3044;43.232;27.972;2023-01-19T08:17:55;45026.22;;;-143.84;76.63
6032;BME280;3044;43.232;27.972;2023-01-19T08:20:23;45026.22;;;-143.84;76.10
6032;BME280;3044;43.232;27.972;2023-01-19T08:22:50;45047.16;;;-143.84;76.10
6032;BME280;3044;43.232;27.972;2023-01-19T08:25:25;45045.25;;;-143.84;75.73
6032;BME280;3044;43.232;27.972;2023-01-19T08:27:54;45047.16;;;-143.84;75.94
6032;BME280;3044;43.232;27.972;2023-01-19T08:30:22;45052.88;;;-143.84;76.27
6032;BME280;3044;43.232;27.972;2023-01-19T08:32:52;45041.44;;;-143.84;76.42
6032;BME280;3044;43.232;27.972;2023-01-19T08:35:24;45043.34;;;-143.84;76.72
6032;BME280;3044;43.232;27.972;2023-01-19T08:37:51;45047.16;;;-143.84;76.60
6032;BME280;3044;43.232;27.972;2023-01-19T08:40:18;45028.13;;;-143.84;76.26
6032;BME280;3044;43.232;27.972;2023-01-19T08:42:45;45049.06;;;-143.84;76.53
6032;BME280;3044;43.232;27.972;2023-01-19T08:45:12;45052.88;;;-143.84;76.36
6032;BME280;3044;43.232;27.972;2023-01-19T08:47:40;45079.53;;;-143.84;75.83
6032;BME280;3044;43.232;27.972;2023-01-19T08:50:08;45085.25;;;-143.84;75.81
6032;BME280;3044;43.232;27.972;2023-01-19T08:52:37;45081.44;;;-143.84;75.68
6032;BME280;3044;43.232;27.972;2023-01-19T08:55:06;45066.22;;;-143.84;75.20
6032;BME280;3044;43.232;27.972;2023-01-19T08:57:33;45062.41;;;-143.84;74.83
6032;BME280;3044;43.232;27.972;2023-01-19T09:00:01;45083.34;;;-143.84;74.64
6032;BME280;3044;43.232;27.972;2023-01-19T09:02:28;45056.69;;;-143.84;74.89
6032;BME280;3044;43.232;27.972;2023-01-19T09:04:56;45117.63;;;-143.84;73.76
6032;BME280;3044;43.232;27.972;2023-01-19T09:07:23;45106.19;;;-143.84;73.65
6032;BME280;3044;43.232;27.972;2023-01-19T09:09:52;45106.19;;;-143.84;73.13
6032;BME280;3044;43.232;27.972;2023-01-19T09:12:19;45108.09;;;-143.84;72.20
6032;BME280;3044;43.232;27.972;2023-01-19T09:14:46;45119.53;;;-143.84;71.37
6032;BME280;3044;43.232;27.972;2023-01-19T09:17:13;45148.09;;;-143.84;71.57
6032;BME280;3044;43.232;27.972;2023-01-19T09:19:42;45098.56;;;-143.84;70.85
6032;BME280;3044;43.232;27.972;2023-01-19T09:22:09;45159.50;;;-143.84;70.12
6032;BME280;3044;43.232;27.972;2023-01-19T09:24:36;45132.84;;;-143.84;70.29
6032;BME280;3044;43.232;27.972;2023-01-19T09:27:05;45123.34;;;-143.84;70.15
6032;BME280;3044;43.232;27.972;2023-01-19T09:29:32;45129.03;;;-143.84;70.12
6032;BME280;3044;43.232;27.972;2023-01-19T09:32:00;45121.44;;;-143.84;70.54
6032;BME280;3044;43.232;27.972;2023-01-19T09:34:27;45136.66;;;-143.84;70.44
6032;BME280;3044;43.232;27.972;2023-01-19T09:36:55;45110.00;;;-143.84;69.60
6032;BME280;3044;43.232;27.972;2023-01-19T09:39:23;45117.63;;;-143.84;70.09
6032;BME280;3044;43.232;27.972;2023-01-19T09:41:57;45136.66;;;-143.84;69.29
6032;BME280;3044;43.232;27.972;2023-01-19T09:44:28;45117.63;;;-143.84;69.81
6032;BME280;3044;43.232;27.972;2023-01-19T09:46:59;45142.38;;;-143.84;68.54
6032;BME280;3044;43.232;27.972;2023-01-19T09:49:32;45134.75;;;-143.84;69.17
6032;BME280;3044;43.232;27.972;2023-01-19T09:52:01;45144.28;;;-143.84;68.36
6032;BME280;3044;43.232;27.972;2023-01-19T09:54:35;45142.38;;;-143.84;67.86
6032;BME280;3044;43.232;27.972;2023-01-19T09:57:09;45119.53;;;-143.84;67.79
6032;BME280;3044;43.232;27.972;2023-01-19T09:59:39;45117.63;;;-143.84;67.79
6032;BME280;3044;43.232;27.972;2023-01-19T10:02:21;45123.34;;;-143.84;67.47
6032;BME280;3044;43.232;27.972;2023-01-19T10:04:58;45130.94;;;-143.84;66.67
6032;BME280;3044;43.232;27.972;2023-01-19T10:07:38;45132.84;;;-143.84;64.99
6032;BME280;3044;43.232;27.972;2023-01-19T10:10:19;45134.75;;;-143.84;64.48
6032;BME280;3044;43.232;27.972;2023-01-19T10:13:08;45138.56;;;-143.84;62.66
6032;BME280;3044;43.232;27.972;2023-01-19T10:15:45;45134.75;;;-143.84;62.70
6032;BME280;3044;43.232;27.972;2023-01-19T10:18:20;45138.56;;;-143.84;60.82
6032;BME280;3044;43.232;27.972;2023-01-19T10:20:53;45127.13;;;-143.84;59.98
6032;BME280;3044;43.232;27.972;2023-01-19T10:23:33;45121.44;;;-143.84;60.10
6032;BME280;3044;43.232;27.972;2023-01-19T10:26:07;45121.44;;;-143.84;58.87
6032;BME280;3044;43.232;27.972;2023-01-19T10:28:36;45142.38;;;-143.84;57.43
6032;BME280;3044;43.232;27.972;2023-01-19T10:31:06;45119.53;;;-143.84;57.50
6032;BME280;3044;43.232;27.972;2023-01-19T10:33:34;45146.19;;;-143.84;58.62
6032;BME280;3044;43.232;27.972;2023-01-19T10:36:04;45106.19;;;-143.84;56.15
6032;BME280;3044;43.232;27.972;2023-01-19T10:38:33;45121.44;;;-143.84;56.45
6032;BME280;3044;43.232;27.972;2023-01-19T10:41:04;45117.63;;;-143.84;55.37
6032;BME280;3044;43.232;27.972;2023-01-19T10:43:38;45115.72;;;-143.84;54.50
6032;BME280;3044;43.232;27.972;2023-01-19T10:46:23;45117.63;;;-143.84;54.08
6032;BME280;3044;43.232;27.972;2023-01-19T10:48:54;45129.03;;;-143.84;54.75
6032;BME280;3044;43.232;27.972;2023-01-19T10:51:22;45140.47;;;-143.84;55.31
6032;BME280;3044;43.232;27.972;2023-01-19T10:53:57;45111.91;;;-143.84;55.28
6032;BME280;3044;43.232;27.972;2023-01-19T10:56:29;45134.75;;;-143.84;54.41
6032;BME280;3044;43.232;27.972;2023-01-19T10:58:59;45130.94;;;-143.84;54.33
6032;BME280;3044;43.232;27.972;2023-01-19T11:01:28;45132.84;;;-143.84;54.75
6032;BME280;3044;43.232;27.972;2023-01-19T11:04:00;45121.44;;;-143.84;55.25
6032;BME280;3044;43.232;27.972;2023-01-19T11:06:44;45119.53;;;-143.84;54.06
6032;BME280;3044;43.232;27.972;2023-01-19T11:09:16;45132.84;;;-143.84;53.84
6032;BME280;3044;43.232;27.972;2023-01-19T11:11:48;45108.09;;;-143.84;54.10
6032;BME280;3044;43.232;27.972;2023-01-19T11:14:21;45123.34;;;-143.84;54.23
6032;BME280;3044;43.232;27.972;2023-01-19T11:16:52;45132.84;;;-143.84;53.21
6032;BME280;3044;43.232;27.972;2023-01-19T11:19:24;45123.34;;;-143.84;53.05
6032;BME280;3044;43.232;27.972;2023-01-19T11:22:06;45146.19;;;-143.84;53.61
6032;BME280;3044;43.232;27.972;2023-01-19T11:24:36;45129.03;;;-143.84;52.21
6032;BME280;3044;43.232;27.972;2023-01-19T11:27:04;45110.00;;;-143.84;52.74
6032;BME280;3044;43.232;27.972;2023-01-19T11:29:31;45130.94;;;-143.84;52.55
6032;BME280;3044;43.232;27.972;2023-01-19T11:32:11;45125.22;;;-143.84;52.67
6032;BME280;3044;43.232;27.972;2023-01-19T11:34:38;45140.47;;;-143.84;52.58
6032;BME280;3044;43.232;27.972;2023-01-19T11:37:31;45130.94;;;-143.84;53.99
6032;BME280;3044;43.232;27.972;2023-01-19T11:40:00;45121.44;;;-143.84;53.83
6032;BME280;3044;43.232;27.972;2023-01-19T11:42:32;45132.84;;;-143.84;53.61
6032;BME280;3044;43.232;27.972;2023-01-19T11:45:05;45140.47;;;-143.84;53.40
6032;BME280;3044;43.232;27.972;2023-01-19T11:47:41;45142.38;;;-143.84;53.08
6032;BME280;3044;43.232;27.972;2023-01-19T11:50:19;45123.34;;;-143.84;52.70
6032;BME280;3044;43.232;27.972;2023-01-19T11:52:51;45121.44;;;-143.84;52.47
6032;BME280;3044;43.232;27.972;2023-01-19T11:55:26;45148.09;;;-143.84;52.34
6032;BME280;3044;43.232;27.972;2023-01-19T11:57:57;45127.13;;;-143.84;51.80
6032;BME280;3044;43.232;27.972;2023-01-19T12:00:26;45129.03;;;-143.84;52.05
6032;BME280;3044;43.232;27.972;2023-01-19T12:03:08;45123.34;;;-143.84;51.30
6032;BME280;3044;43.232;27.972;2023-01-19T12:05:41;45110.00;;;-143.84;51.04
6032;BME280;3044;43.232;27.972;2023-01-19T12:08:12;45098.56;;;-143.84;51.35
6032;BME280;3044;43.232;27.972;2023-01-19T12:10:44;45136.66;;;-143.84;50.08
6032;BME280;3044;43.232;27.972;2023-01-19T12:13:18;45138.56;;;-143.84;49.79
6032;BME280;3044;43.232;27.972;2023-01-19T12:15:47;45121.44;;;-143.84;50.03
6032;BME280;3044;43.232;27.972;2023-01-19T12:18:21;45138.56;;;-143.84;49.96
6032;BME280;3044;43.232;27.972;2023-01-19T12:20:51;45132.84;;;-143.84;51.30
6032;BME280;3044;43.232;27.972;2023-01-19T12:23:27;45130.94;;;-143.84;51.50
6032;BME280;3044;43.232;27.972;2023-01-19T12:26:03;45117.63;;;-143.84;51.90
6032;BME280;3044;43.232;27.972;2023-01-19T12:28:38;45132.84;;;-143.84;52.17
6032;BME280;3044;43.232;27.972;2023-01-19T12:31:07;45136.66;;;-143.84;53.80
6032;BME280;3044;43.232;27.972;2023-01-19T12:33:37;45144.28;;;-143.84;53.46
6032;BME280;3044;43.232;27.972;2023-01-19T12:36:10;45117.63;;;-143.84;53.90
6032;BME280;3044;43.232;27.972;2023-01-19T12:38:49;45136.66;;;-143.84;53.94
6032;BME280;3044;43.232;27.972;2023-01-19T12:41:21;45110.00;;;-143.84;53.52
6032;BME280;3044;43.232;27.972;2023-01-19T12:44:26;45138.56;;;-143.84;53.01
6032;BME280;3044;43.232;27.972;2023-01-19T12:46:56;45121.44;;;-143.84;52.01
6032;BME280;3044;43.232;27.972;2023-01-19T12:49:32;45115.72;;;-143.84;49.64
6032;BME280;3044;43.232;27.972;2023-01-19T12:52:27;45104.28;;;-143.84;48.91
6032;BME280;3044;43.232;27.972;2023-01-19T12:54:58;45130.94;;;-143.84;47.80
6032;BME280;3044;43.232;27.972;2023-01-19T12:57:30;45106.19;;;-143.84;47.21
6032;BME280;3044;43.232;27.972;2023-01-19T13:00:01;45140.47;;;-143.84;47.36
6032;BME280;3044;43.232;27.972;2023-01-19T13:02:45;45106.19;;;-143.84;46.85
6032;BME280;3044;43.232;27.972;2023-01-19T13:05:17;45113.81;;;-143.84;46.23